Time;durP1;ratioP1;P1;durP2;ratioP2;P2;SDS_P1;SDS_P2;PMS_P1;PMS_P2;Temp;Humidity;BMP_temperature;BMP_pressure;BME280_temperature;BME280_humidity;BME280_pressure;Samples;Min_cycle;Max_cycle;Signal;HPM_P1;HPM_P2
2023/12/08 00:01:50;;;;;;;;;13.67;13.00;;;;;-147.47;100.00;64613.53;4892579;29;28531;-74
2023/12/08 00:04:16;;;;;;;;;12.33;9.00;;;;;-147.47;100.00;64613.53;4893500;29;28942;-73
2023/12/08 00:06:41;;;;;;;;;10.67;10.67;;;;;-147.47;100.00;64613.53;4893644;29;28985;-74
2023/12/08 00:09:07;;;;;;;;;12.33;11.33;;;;;-147.47;100.00;64613.53;4891775;29;28686;-71
2023/12/08 00:11:32;;;;;;;;;16.00;12.33;;;;;-147.47;100.00;64613.53;4891484;29;28608;-74
2023/12/08 00:13:58;;;;;;;;;13.33;10.33;;;;;-147.47;100.00;64613.53;4892507;29;29404;-74
2023/12/08 00:16:23;;;;;;;;;14.33;12.00;;;;;-147.47;100.00;64613.53;4892406;29;28481;-74
2023/12/08 00:18:48;;;;;;;;;12.33;10.00;;;;;-147.47;100.00;64613.53;4892434;29;28509;-74
2023/12/08 00:21:14;;;;;;;;;11.67;11.00;;;;;-147.47;100.00;64613.53;4891514;29;28672;-73
2023/12/08 00:23:39;;;;;;;;;10.00;10.00;;;;;-147.47;100.00;64613.53;4891751;29;29076;-72
2023/12/08 00:26:05;;;;;;;;;13.67;10.67;;;;;-147.47;100.00;64613.53;4892434;29;29651;-71
2023/12/08 00:28:30;;;;;;;;;13.67;13.67;;;;;-147.47;100.00;64613.53;4893454;29;28497;-73
2023/12/08 00:30:55;;;;;;;;;17.33;12.00;;;;;-147.47;100.00;64613.53;4893746;29;28802;-80
2023/12/08 00:33:21;;;;;;;;;16.00;15.00;;;;;-147.47;100.00;64613.53;4896759;29;28565;-80
2023/12/08 00:35:48;;;;;;;;;11.33;10.00;;;;;-147.47;100.00;64613.53;4896652;29;28466;-80
2023/12/08 00:38:13;;;;;;;;;11.00;11.00;;;;;-147.47;100.00;64613.53;4894730;29;28612;-81
2023/12/08 00:40:39;;;;;;;;;11.00;10.33;;;;;-147.47;100.00;64613.53;4896310;29;28855;-81
2023/12/08 00:43:04;;;;;;;;;13.00;11.00;;;;;-147.47;100.00;64613.53;4896024;29;28569;-81
2023/12/08 00:45:30;;;;;;;;;14.67;10.67;;;;;-147.47;100.00;64613.53;4894906;29;29106;-81
2023/12/08 00:47:55;;;;;;;;;12.33;12.33;;;;;-147.47;100.00;64613.53;4894972;29;28841;-80
2023/12/08 00:50:20;;;;;;;;;11.33;11.33;;;;;-147.47;100.00;64613.53;4894283;29;28805;-81
2023/12/08 00:52:46;;;;;;;;;14.67;13.33;;;;;-147.47;100.00;64613.53;4894300;29;28543;-80
2023/12/08 00:55:12;;;;;;;;;15.00;13.67;;;;;-147.47;100.00;64613.53;4893061;29;29200;-80
2023/12/08 00:57:37;;;;;;;;;15.33;14.67;;;;;-147.47;100.00;64613.53;4894135;29;28891;-81
2023/12/08 01:00:04;;;;;;;;;13.33;13.33;;;;;-147.47;100.00;64613.53;4894542;29;28543;-80
2023/12/08 01:02:29;;;;;;;;;14.00;13.00;;;;;-147.47;100.00;64613.53;4892700;29;28522;-79
2023/12/08 01:04:54;;;;;;;;;15.33;12.67;;;;;-147.47;100.00;64613.53;4889418;29;28978;-80
2023/12/08 01:07:20;;;;;;;;;11.67;10.00;;;;;-147.47;100.00;64613.53;4893256;29;28876;-81
2023/12/08 01:09:45;;;;;;;;;14.00;13.00;;;;;-147.47;100.00;64613.53;4892940;28;28632;-80
2023/12/08 01:12:11;;;;;;;;;11.00;10.00;;;;;-147.47;100.00;64613.53;4892129;29;28685;-81
2023/12/08 01:14:36;;;;;;;;;12.00;12.00;;;;;-147.47;100.00;64613.53;4893686;29;30575;-78
2023/12/08 01:17:02;;;;;;;;;14.00;12.33;;;;;-147.47;100.00;64613.53;4893240;29;28519;-81
2023/12/08 01:19:27;;;;;;;;;14.33;13.33;;;;;-147.47;100.00;64613.53;4888178;29;27953;-81
2023/12/08 01:21:53;;;;;;;;;18.00;15.33;;;;;-147.47;100.00;64613.53;4892239;29;30340;-81
2023/12/08 01:24:18;;;;;;;;;12.67;11.00;;;;;-147.47;100.00;64613.53;4894062;29;28522;-80
2023/12/08 01:26:44;;;;;;;;;9.00;9.00;;;;;-147.47;100.00;64613.53;4891919;29;28885;-81
2023/12/08 01:29:13;;;;;;;;;10.00;10.00;;;;;-147.47;100.00;64613.53;4895079;29;28546;-80
2023/12/08 01:31:39;;;;;;;;;9.00;9.00;;;;;-147.47;100.00;64613.53;4883223;29;28691;-80
2023/12/08 01:34:04;;;;;;;;;9.67;9.33;;;;;-147.47;100.00;64613.53;4895626;29;29515;-81
2023/12/08 01:36:29;;;;;;;;;12.33;10.67;;;;;-147.47;100.00;64613.53;4893699;29;28490;-82
2023/12/08 01:38:55;;;;;;;;;9.00;7.00;;;;;-147.47;100.00;64613.53;4892047;29;28443;-80
2023/12/08 01:41:21;;;;;;;;;10.00;10.00;;;;;-147.47;100.00;64613.53;4893895;29;28564;-81
2023/12/08 01:43:46;;;;;;;;;10.00;9.00;;;;;-147.47;100.00;64613.53;4894040;29;28366;-79
2023/12/08 01:46:15;;;;;;;;;8.00;8.00;;;;;-147.47;100.00;64613.53;4893541;29;28529;-80
2023/12/08 01:48:42;;;;;;;;;11.33;9.00;;;;;-147.47;100.00;64613.53;4893996;29;28498;-80
2023/12/08 01:51:09;;;;;;;;;9.67;6.00;;;;;-147.47;100.00;64613.53;4892956;29;28840;-78
2023/12/08 01:53:35;;;;;;;;;9.00;8.33;;;;;-147.47;100.00;64613.53;4892849;29;28484;-78
2023/12/08 01:56:01;;;;;;;;;8.33;8.00;;;;;-147.47;100.00;64613.53;4892254;29;28712;-82
2023/12/08 01:58:27;;;;;;;;;7.33;7.33;;;;;-147.47;100.00;64613.53;4893090;29;28378;-78
2023/12/08 02:00:55;;;;;;;;;8.67;8.67;;;;;-147.47;100.00;64613.53;4893244;29;28443;-82
2023/12/08 02:03:22;;;;;;;;;9.67;8.67;;;;;-147.47;100.00;64613.53;4892978;29;28609;-80
2023/12/08 02:05:50;;;;;;;;;9.67;9.33;;;;;-147.47;100.00;64613.53;4891906;29;28630;-79
2023/12/08 02:08:33;;;;;;;;;10.00;8.33;;;;;-147.47;100.00;64613.53;4884785;29;28546;-81
2023/12/08 02:10:59;;;;;;;;;7.33;7.33;;;;;-147.47;100.00;64613.53;4892154;29;28454;-80
2023/12/08 02:13:24;;;;;;;;;9.67;8.00;;;;;-147.47;100.00;64613.53;4892277;29;28990;-79
2023/12/08 02:16:07;;;;;;;;;8.00;6.33;;;;;-147.47;100.00;64613.53;4892253;29;28633;-80
2023/12/08 02:18:34;;;;;;;;;7.00;7.00;;;;;-147.47;100.00;64613.53;4891236;29;28610;-80
2023/12/08 02:21:01;;;;;;;;;8.00;8.00;;;;;-147.47;100.00;64613.53;4893008;29;29639;-79
2023/12/08 02:23:27;;;;;;;;;14.00;8.33;;;;;-147.47;100.00;64613.53;4894290;29;29305;-79
2023/12/08 02:25:52;;;;;;;;;11.00;9.00;;;;;-147.47;100.00;64613.53;4893763;29;28796;-78
2023/12/08 02:28:17;;;;;;;;;8.00;8.00;;;;;-147.47;100.00;64613.53;4893014;29;33319;-80
2023/12/08 02:30:43;;;;;;;;;7.00;7.00;;;;;-147.47;100.00;64613.53;4893567;29;28913;-78
2023/12/08 02:33:14;;;;;;;;;9.00;8.33;;;;;-147.47;100.00;64613.53;4891094;29;29789;-81
2023/12/08 02:35:42;;;;;;;;;7.67;7.67;;;;;-147.47;100.00;64613.53;4890885;29;29143;-79
2023/12/08 02:38:13;;;;;;;;;11.00;9.00;;;;;-147.47;100.00;64613.53;4892184;29;28513;-79
2023/12/08 02:40:38;;;;;;;;;8.00;6.00;;;;;-147.47;100.00;64613.53;4890493;29;28934;-77
2023/12/08 02:43:04;;;;;;;;;10.00;10.00;;;;;-147.47;100.00;64613.53;4888001;29;29953;-80
2023/12/08 02:45:29;;;;;;;;;10.00;8.00;;;;;-147.47;100.00;64613.53;4886428;29;28438;-78
2023/12/08 02:47:55;;;;;;;;;10.00;9.00;;;;;-147.47;100.00;64613.53;4893683;29;28436;-79
2023/12/08 02:50:20;;;;;;;;;15.00;12.67;;;;;-147.47;100.00;64613.53;4891161;29;29476;-78
2023/12/08 02:52:46;;;;;;;;;9.33;9.33;;;;;-147.47;100.00;64613.53;4890982;29;30880;-77
2023/12/08 02:55:11;;;;;;;;;12.33;9.67;;;;;-147.47;100.00;64613.53;4888922;29;28600;-79
2023/12/08 02:57:36;;;;;;;;;9.67;8.33;;;;;-147.47;100.00;64613.53;4896602;29;28467;-78
2023/12/08 03:00:03;;;;;;;;;9.33;9.00;;;;;-147.47;100.00;64613.53;4896769;29;28283;-80
2023/12/08 03:02:28;;;;;;;;;9.33;9.33;;;;;-147.47;100.00;64613.53;4896259;29;29982;-78
2023/12/08 03:04:53;;;;;;;;;11.00;9.00;;;;;-147.47;100.00;64613.53;4896045;29;28471;-80
2023/12/08 03:07:19;;;;;;;;;12.00;10.00;;;;;-147.47;100.00;64613.53;4894766;29;28988;-80
2023/12/08 03:09:46;;;;;;;;;12.33;9.67;;;;;-147.47;100.00;64613.53;4890163;29;28691;-78
2023/12/08 03:12:11;;;;;;;;;8.33;7.33;;;;;-147.47;100.00;64613.53;4891445;29;29246;-80
2023/12/08 03:14:36;;;;;;;;;10.33;9.00;;;;;-147.47;100.00;64613.53;4905200;29;28769;-79
2023/12/08 03:17:02;;;;;;;;;8.00;8.00;;;;;-147.47;100.00;64613.53;4897532;29;29118;-77
2023/12/08 03:19:27;;;;;;;;;11.33;10.00;;;;;-147.47;100.00;64613.53;4892960;29;28740;-79
2023/12/08 03:21:53;;;;;;;;;8.67;8.67;;;;;-147.47;100.00;64613.53;4897602;28;29347;-79
2023/12/08 03:24:18;;;;;;;;;10.33;10.33;;;;;-147.47;100.00;64613.53;4896999;29;28839;-79
2023/12/08 03:26:43;;;;;;;;;8.00;8.00;;;;;-147.47;100.00;64613.53;4895887;29;28670;-79
2023/12/08 03:29:09;;;;;;;;;8.33;7.33;;;;;-147.47;100.00;64613.53;4889327;29;28695;-79
2023/12/08 03:31:34;;;;;;;;;11.00;9.00;;;;;-147.47;100.00;64613.53;4907945;29;29738;-79
2023/12/08 03:34:00;;;;;;;;;10.00;8.67;;;;;-147.47;100.00;64613.53;4911016;29;28917;-79
2023/12/08 03:36:25;;;;;;;;;11.00;9.67;;;;;-147.47;100.00;64613.53;4895209;29;28412;-81
2023/12/08 03:38:51;;;;;;;;;11.67;7.67;;;;;-147.47;100.00;64613.53;4897073;29;28623;-79
2023/12/08 03:41:16;;;;;;;;;7.33;5.33;;;;;-147.47;100.00;64613.53;4897663;29;29596;-80
2023/12/08 03:43:41;;;;;;;;;11.00;8.67;;;;;-147.47;100.00;64613.53;4896543;29;28546;-80
2023/12/08 03:46:08;;;;;;;;;9.00;9.00;;;;;-147.47;100.00;64613.53;4895989;29;28323;-80
2023/12/08 03:48:34;;;;;;;;;6.00;6.00;;;;;-147.47;100.00;64613.53;4896657;29;28442;-72
2023/12/08 03:51:00;;;;;;;;;11.33;9.67;;;;;-147.47;100.00;64613.53;4894886;29;28549;-73
2023/12/08 03:53:25;;;;;;;;;9.00;9.00;;;;;-147.47;100.00;64613.53;4892053;29;29890;-71
2023/12/08 03:55:51;;;;;;;;;12.00;9.00;;;;;-147.47;100.00;64613.53;4893626;29;28560;-71
2023/12/08 03:58:16;;;;;;;;;8.00;7.00;;;;;-147.47;100.00;64613.53;4893319;29;28577;-72
2023/12/08 04:00:42;;;;;;;;;8.67;7.67;;;;;-147.47;100.00;64613.53;4892032;29;29328;-71
2023/12/08 04:03:07;;;;;;;;;11.00;9.00;;;;;-147.47;100.00;64613.53;4893191;29;28604;-71
2023/12/08 04:05:32;;;;;;;;;11.33;10.00;;;;;-147.47;100.00;64613.53;4890995;29;28498;-69
2023/12/08 04:07:58;;;;;;;;;11.33;7.67;;;;;-147.47;100.00;64613.53;4893526;29;28688;-73
2023/12/08 04:10:23;;;;;;;;;11.67;9.00;;;;;-147.47;100.00;64613.53;4893196;29;28607;-71
2023/12/08 04:12:48;;;;;;;;;11.00;10.67;;;;;-147.47;100.00;64613.53;4891607;29;28561;-71
2023/12/08 04:15:14;;;;;;;;;14.67;13.00;;;;;-147.47;100.00;64613.53;4893829;29;28436;-70
2023/12/08 04:17:39;;;;;;;;;10.67;9.67;;;;;-147.47;100.00;64613.53;4892418;29;29755;-70
2023/12/08 04:20:05;;;;;;;;;12.67;10.00;;;;;-147.47;100.00;64613.53;4891629;29;30412;-71
2023/12/08 04:22:31;;;;;;;;;11.67;8.33;;;;;-147.47;100.00;64613.53;4893608;29;28648;-73
2023/12/08 04:24:57;;;;;;;;;10.00;9.00;;;;;-147.47;100.00;64613.53;4893397;29;28760;-73
2023/12/08 04:27:22;;;;;;;;;11.00;6.67;;;;;-147.47;100.00;64613.53;4893440;29;28759;-72
2023/12/08 04:29:47;;;;;;;;;15.00;8.67;;;;;-147.47;100.00;64613.53;4892142;29;31079;-72
2023/12/08 04:32:13;;;;;;;;;12.00;8.00;;;;;-147.47;100.00;64613.53;4891870;29;33213;-73
2023/12/08 04:34:38;;;;;;;;;8.33;8.00;;;;;-147.47;100.00;64613.53;4893480;29;28515;-72
2023/12/08 04:37:04;;;;;;;;;12.50;10.00;;;;;-147.47;100.00;64613.53;4895791;29;33510;-78
2023/12/08 04:39:29;;;;;;;;;9.67;8.00;;;;;-147.47;100.00;64613.53;4894278;29;29231;-80
2023/12/08 04:41:55;;;;;;;;;10.33;8.33;;;;;-147.47;100.00;64613.53;4873976;29;30149;-79
2023/12/08 04:44:20;;;;;;;;;9.33;7.67;;;;;-147.47;100.00;64613.53;4889561;29;28553;-78
2023/12/08 04:46:45;;;;;;;;;7.00;7.00;;;;;-147.47;100.00;64613.53;4885333;29;29594;-79
2023/12/08 04:49:11;;;;;;;;;10.67;7.67;;;;;-147.47;100.00;64613.53;4894254;29;28928;-77
2023/12/08 04:51:39;;;;;;;;;9.33;8.33;;;;;-147.47;100.00;64613.53;4891590;29;28679;-78
2023/12/08 04:54:04;;;;;;;;;11.67;9.00;;;;;-147.47;100.00;64613.53;4891922;29;28817;-78
2023/12/08 04:56:30;;;;;;;;;7.00;7.00;;;;;-147.47;100.00;64613.53;4891314;29;28400;-78
2023/12/08 04:58:55;;;;;;;;;13.00;8.00;;;;;-147.47;100.00;64613.53;4902248;29;30025;-79
2023/12/08 05:01:20;;;;;;;;;8.33;7.00;;;;;-147.47;100.00;64613.53;4892383;29;28363;-77
2023/12/08 05:03:46;;;;;;;;;13.33;9.33;;;;;-147.47;100.00;64613.53;4890993;29;28529;-76
2023/12/08 05:06:11;;;;;;;;;12.33;9.00;;;;;-147.47;100.00;64613.53;4891878;29;29147;-78
2023/12/08 05:08:38;;;;;;;;;20.33;11.00;;;;;-147.47;100.00;64613.53;4888081;29;28804;-79
2023/12/08 05:11:04;;;;;;;;;13.67;10.33;;;;;-147.47;100.00;64613.53;4888148;29;28641;-78
2023/12/08 05:13:29;;;;;;;;;12.33;9.00;;;;;-147.47;100.00;64613.53;4892753;29;28635;-79
2023/12/08 05:15:55;;;;;;;;;13.00;9.33;;;;;-147.47;100.00;64613.53;4893908;29;28971;-80
2023/12/08 05:18:20;;;;;;;;;19.33;13.00;;;;;-147.47;100.00;64613.53;4895112;29;28656;-78
2023/12/08 05:20:46;;;;;;;;;11.00;7.00;;;;;-147.47;100.00;64613.53;4893705;29;28450;-78
2023/12/08 05:23:12;;;;;;;;;16.00;11.67;;;;;-147.47;100.00;64613.53;4892263;29;28520;-78
2023/12/08 05:25:38;;;;;;;;;11.00;7.00;;;;;-147.47;100.00;64613.53;4894274;29;28828;-78
2023/12/08 05:28:03;;;;;;;;;12.33;7.67;;;;;-147.47;100.00;64613.53;4891570;29;30850;-77
2023/12/08 05:30:28;;;;;;;;;11.67;9.00;;;;;-147.47;100.00;64613.53;4895061;29;28553;-79
2023/12/08 05:32:54;;;;;;;;;9.67;8.67;;;;;-147.47;100.00;64613.53;4893918;29;28449;-78
2023/12/08 05:35:20;;;;;;;;;13.00;10.00;;;;;-147.47;100.00;64613.53;4895729;29;28586;-78
2023/12/08 05:37:45;;;;;;;;;31.33;26.00;;;;;-147.47;100.00;64613.53;4894550;29;29960;-79
2023/12/08 05:40:11;;;;;;;;;18.00;16.33;;;;;-147.47;100.00;64613.53;4890295;29;28414;-79
2023/12/08 05:42:37;;;;;;;;;16.67;14.33;;;;;-147.47;100.00;64613.53;4891676;29;28918;-80
2023/12/08 05:45:03;;;;;;;;;10.67;9.00;;;;;-147.47;100.00;64613.53;4894174;29;28509;-79
2023/12/08 05:47:29;;;;;;;;;13.33;13.00;;;;;-147.47;100.00;64613.53;4894616;29;28783;-80
2023/12/08 05:49:54;;;;;;;;;15.33;12.00;;;;;-147.47;100.00;64613.53;4882126;29;29572;-84
2023/12/08 05:52:19;;;;;;;;;12.67;9.33;;;;;-147.47;100.00;64613.53;4900827;29;28543;-80
2023/12/08 05:54:45;;;;;;;;;15.33;9.33;;;;;-147.47;100.00;64613.53;4896311;29;28612;-80
2023/12/08 05:57:10;;;;;;;;;8.33;6.33;;;;;-147.47;100.00;64613.53;4896149;29;29038;-79
2023/12/08 05:59:36;;;;;;;;;12.00;10.67;;;;;-147.47;100.00;64613.53;4895993;29;28513;-80
2023/12/08 06:02:01;;;;;;;;;12.33;12.33;;;;;-147.47;100.00;64613.53;4894458;29;28544;-80
2023/12/08 06:04:27;;;;;;;;;10.67;9.00;;;;;-147.47;100.00;64613.53;4895165;29;27982;-81
2023/12/08 06:06:52;;;;;;;;;10.00;8.00;;;;;-147.47;100.00;64613.53;4909797;29;28592;-80
2023/12/08 06:09:18;;;;;;;;;9.00;8.00;;;;;-147.47;100.00;64613.53;4892131;29;29505;-77
2023/12/08 06:11:44;;;;;;;;;12.00;10.67;;;;;-147.47;100.00;64613.53;4893469;29;28652;-79
2023/12/08 06:14:09;;;;;;;;;15.00;9.67;;;;;-147.47;100.00;64613.53;4893832;29;29447;-79
2023/12/08 06:16:35;;;;;;;;;13.00;10.67;;;;;-147.47;100.00;64613.53;4894505;29;29313;-79
2023/12/08 06:19:00;;;;;;;;;9.00;6.00;;;;;-147.47;100.00;64613.53;4894647;29;28471;-79
2023/12/08 06:21:25;;;;;;;;;10.33;8.00;;;;;-147.47;100.00;64613.53;4890557;29;29551;-80
2023/12/08 06:23:52;;;;;;;;;10.33;8.00;;;;;-147.47;100.00;64613.53;4898367;29;28753;-86
2023/12/08 06:26:19;;;;;;;;;8.00;7.00;;;;;-147.47;100.00;64613.53;4894248;29;28507;-87
2023/12/08 06:28:45;;;;;;;;;11.67;6.67;;;;;-147.47;100.00;64613.53;4893581;29;28461;-82
2023/12/08 06:31:10;;;;;;;;;11.00;9.67;;;;;-147.47;100.00;64613.53;4890527;29;28838;-81
2023/12/08 06:33:36;;;;;;;;;11.33;8.00;;;;;-147.47;100.00;64613.53;4888478;29;29461;-81
2023/12/08 06:36:03;;;;;;;;;9.00;7.67;;;;;-147.47;100.00;64613.53;4881489;29;28948;-80
2023/12/08 06:38:29;;;;;;;;;9.33;6.33;;;;;-147.47;100.00;64613.53;4886196;29;28653;-81
2023/12/08 06:40:54;;;;;;;;;8.00;8.00;;;;;-147.47;100.00;64613.53;4891573;29;28806;-79
2023/12/08 06:43:20;;;;;;;;;14.33;9.00;;;;;-147.47;100.00;64613.53;4891106;29;29598;-72
2023/12/08 06:45:46;;;;;;;;;12.67;10.00;;;;;-147.47;100.00;64613.53;4891531;29;28916;-81
2023/12/08 06:48:11;;;;;;;;;13.67;10.00;;;;;-147.47;100.00;64613.53;4891523;29;28525;-75
2023/12/08 06:50:37;;;;;;;;;12.67;10.00;;;;;-147.47;100.00;64613.53;4886755;29;28415;-74
2023/12/08 06:53:02;;;;;;;;;11.00;9.00;;;;;-147.47;100.00;64613.53;4894166;29;29645;-77
2023/12/08 06:55:28;;;;;;;;;14.00;11.00;;;;;-147.47;100.00;64613.53;4886197;29;29720;-78
2023/12/08 06:57:53;;;;;;;;;14.00;9.00;;;;;-147.47;100.00;64613.53;4891085;29;28890;-79
2023/12/08 07:00:19;;;;;;;;;18.00;12.33;;;;;-147.47;100.00;64613.53;4885854;29;28513;-76
2023/12/08 07:02:44;;;;;;;;;11.00;9.33;;;;;-147.47;100.00;64613.53;4906435;29;28979;-83
2023/12/08 07:05:10;;;;;;;;;15.00;10.00;;;;;-147.47;100.00;64613.53;4887454;29;30235;-79
2023/12/08 07:07:36;;;;;;;;;13.67;11.67;;;;;-147.47;100.00;64613.53;4891266;29;28517;-76
2023/12/08 07:10:01;;;;;;;;;13.67;11.67;;;;;-147.47;100.00;64613.53;4898010;29;28787;-79
2023/12/08 07:12:27;;;;;;;;;14.67;8.00;;;;;-147.47;100.00;64613.53;4894150;29;30378;-81
2023/12/08 07:14:52;;;;;;;;;17.00;12.00;;;;;-147.47;100.00;64613.53;4892534;29;29970;-81
2023/12/08 07:17:18;;;;;;;;;18.00;15.00;;;;;-147.47;100.00;64613.53;4884708;29;28503;-80
2023/12/08 07:19:44;;;;;;;;;16.33;12.67;;;;;-147.47;100.00;64613.53;4890103;29;28660;-77
2023/12/08 07:22:10;;;;;;;;;26.33;19.67;;;;;-147.47;100.00;64613.53;4883180;29;29196;-80
2023/12/08 07:24:37;;;;;;;;;13.67;12.00;;;;;-147.47;100.00;64613.53;4884091;29;28560;-80
2023/12/08 07:27:04;;;;;;;;;23.33;15.67;;;;;-147.47;100.00;64613.53;4887982;29;28723;-74
2023/12/08 07:29:30;;;;;;;;;21.67;13.67;;;;;-147.47;100.00;64613.53;4886919;29;29039;-79
2023/12/08 07:31:55;;;;;;;;;13.00;12.00;;;;;-147.47;100.00;64613.53;4892826;29;28756;-80
2023/12/08 07:34:21;;;;;;;;;14.00;12.00;;;;;-147.47;100.00;64613.53;4894843;29;28541;-71
2023/12/08 07:36:47;;;;;;;;;18.00;11.67;;;;;-147.47;100.00;64613.53;4889575;29;28580;-72
2023/12/08 07:39:12;;;;;;;;;15.00;13.00;;;;;-147.47;100.00;64613.53;4895811;29;28684;-71
2023/12/08 07:41:38;;;;;;;;;12.00;12.00;;;;;-147.47;100.00;64613.53;4891478;29;29423;-73
2023/12/08 07:44:03;;;;;;;;;15.00;13.33;;;;;-147.47;100.00;64613.53;4896747;29;28965;-73
2023/12/08 07:46:30;;;;;;;;;16.67;10.67;;;;;-147.47;100.00;64613.53;4901575;29;28561;-75
2023/12/08 07:48:56;;;;;;;;;16.00;12.00;;;;;-147.47;100.00;64613.53;4899055;29;28624;-81
2023/12/08 07:51:22;;;;;;;;;15.67;12.33;;;;;-147.47;100.00;64613.53;4902858;29;27966;-74
2023/12/08 07:53:47;;;;;;;;;16.33;13.33;;;;;-147.47;100.00;64613.53;4900195;29;29348;-74
2023/12/08 07:56:13;;;;;;;;;15.33;11.67;;;;;-147.47;100.00;64613.53;4908968;29;28668;-81
2023/12/08 07:58:39;;;;;;;;;13.00;12.00;;;;;-147.47;100.00;64613.53;4911336;29;28438;-82
2023/12/08 08:01:05;;;;;;;;;14.33;12.00;;;;;-147.47;100.00;64613.53;4909957;29;28584;-80
2023/12/08 08:03:34;;;;;;;;;17.33;11.67;;;;;-147.47;100.00;64613.53;4910649;29;29813;-83
2023/12/08 08:06:03;;;;;;;;;10.67;7.33;;;;;-147.47;100.00;64613.53;4907788;29;28497;-79
2023/12/08 08:08:29;;;;;;;;;13.67;12.00;;;;;-147.47;100.00;64613.53;4912551;29;28465;-82
2023/12/08 08:10:55;;;;;;;;;19.00;13.67;;;;;-147.47;100.00;64613.53;4917285;29;28641;-81
2023/12/08 08:13:23;;;;;;;;;14.00;13.33;;;;;-147.47;100.00;64613.53;4912209;29;28607;-82
2023/12/08 08:15:49;;;;;;;;;17.00;12.33;;;;;-147.47;100.00;64613.53;4910847;29;28476;-81
2023/12/08 08:18:17;;;;;;;;;18.33;13.67;;;;;-147.47;100.00;64613.53;4910841;29;27868;-80
2023/12/08 08:20:44;;;;;;;;;14.67;12.33;;;;;-147.47;100.00;64613.53;4909798;29;28460;-82
2023/12/08 08:23:11;;;;;;;;;10.33;9.33;;;;;-147.47;100.00;64613.53;4909545;29;28352;-79
2023/12/08 08:25:50;;;;;;;;;8.00;4.00;;;;;-147.47;100.00;64613.53;4909450;29;28442;-78
2023/12/08 08:28:30;;;;;;;;;18.33;13.00;;;;;-147.47;100.00;64613.53;4908343;29;28465;-81
2023/12/08 08:31:07;;;;;;;;;18.67;15.67;;;;;-147.47;100.00;64613.53;4909920;29;28491;-83
2023/12/08 08:33:33;;;;;;;;;15.00;13.00;;;;;-147.47;100.00;64613.53;4916446;28;28361;-80
2023/12/08 08:35:58;;;;;;;;;29.33;16.33;;;;;-147.47;100.00;64613.53;4910376;29;28687;-81
2023/12/08 08:38:24;;;;;;;;;17.00;14.00;;;;;-147.47;100.00;64613.53;4908221;29;28563;-81
2023/12/08 08:40:50;;;;;;;;;17.00;14.00;;;;;-147.47;100.00;64613.53;4905430;29;29377;-80
2023/12/08 08:43:16;;;;;;;;;17.00;14.67;;;;;-147.47;100.00;64613.53;4916591;29;28636;-79
2023/12/08 08:45:45;;;;;;;;;22.67;19.33;;;;;-147.47;100.00;64613.53;4906559;29;28846;-77
2023/12/08 08:48:10;;;;;;;;;17.67;15.00;;;;;-147.47;100.00;64613.53;4898892;29;28562;-84
2023/12/08 08:50:36;;;;;;;;;18.67;15.00;;;;;-147.47;100.00;64613.53;4905333;29;28461;-82
2023/12/08 08:53:01;;;;;;;;;18.33;12.33;;;;;-147.47;100.00;64613.53;4908679;29;29059;-78
2023/12/08 08:55:27;;;;;;;;;23.33;17.00;;;;;-147.47;100.00;64613.53;4909363;29;27890;-81
2023/12/08 08:57:55;;;;;;;;;15.67;14.67;;;;;-147.47;100.00;64613.53;4915371;29;28511;-80
2023/12/08 09:00:21;;;;;;;;;14.33;13.00;;;;;-147.47;100.00;64613.53;4901712;29;28198;-79
2023/12/08 09:02:51;;;;;;;;;20.33;14.33;;;;;-147.47;100.00;64613.53;4903716;29;30752;-77
2023/12/08 09:05:18;;;;;;;;;18.00;15.00;;;;;-147.47;100.00;64613.53;4896659;29;28716;-80
2023/12/08 09:07:44;;;;;;;;;20.00;14.33;;;;;-147.47;100.00;64613.53;4904845;29;28506;-77
2023/12/08 09:10:09;;;;;;;;;20.67;17.67;;;;;-147.47;100.00;64613.53;4906253;29;28463;-76
2023/12/08 09:12:35;;;;;;;;;23.00;13.33;;;;;-147.47;100.00;64613.53;4906899;29;28538;-78
2023/12/08 09:15:00;;;;;;;;;23.33;16.67;;;;;-147.47;100.00;64613.53;4902536;28;28474;-79
2023/12/08 09:17:26;;;;;;;;;16.67;16.67;;;;;-147.47;100.00;64613.53;4894018;29;28232;-81
2023/12/08 09:19:51;;;;;;;;;22.00;16.33;;;;;-147.47;100.00;64613.53;4897188;29;29633;-83
2023/12/08 09:22:17;;;;;;;;;18.33;14.33;;;;;-147.47;100.00;64613.53;4899146;29;28564;-83
2023/12/08 09:24:42;;;;;;;;;20.33;13.67;;;;;-147.47;100.00;64613.53;4907008;29;28487;-84
2023/12/08 09:27:09;;;;;;;;;22.67;14.00;;;;;-147.47;100.00;64613.53;4901630;29;27878;-84
2023/12/08 09:29:35;;;;;;;;;14.00;10.33;;;;;-147.47;100.00;64613.53;4898582;29;29298;-80
2023/12/08 09:32:00;;;;;;;;;13.33;11.00;;;;;-147.47;100.00;64613.53;4895980;29;28551;-77
2023/12/08 09:34:25;;;;;;;;;18.33;13.33;;;;;-147.47;100.00;64613.53;4889206;29;28648;-78
2023/12/08 09:36:51;;;;;;;;;15.33;10.67;;;;;-147.47;100.00;64613.53;4884619;29;28783;-78
2023/12/08 09:39:19;;;;;;;;;17.67;13.33;;;;;-147.47;100.00;64613.53;4895046;29;28695;-78
2023/12/08 09:41:44;;;;;;;;;19.00;12.67;;;;;-147.47;100.00;64613.53;4865680;29;28561;-78
2023/12/08 09:44:12;;;;;;;;;15.33;12.00;;;;;-147.47;100.00;64613.53;4871929;29;28513;-78
2023/12/08 09:46:42;;;;;;;;;14.67;14.00;;;;;-147.47;100.00;64613.53;4867032;29;28400;-76
2023/12/08 09:49:27;;;;;;;;;14.67;9.00;;;;;-147.47;100.00;64613.53;4868721;29;29560;-78
2023/12/08 09:51:52;;;;;;;;;17.67;13.33;;;;;-147.47;100.00;64613.53;4890952;29;29245;-79
2023/12/08 09:54:19;;;;;;;;;16.67;12.00;;;;;-147.47;100.00;64613.53;4877704;29;28562;-78
2023/12/08 09:56:48;;;;;;;;;12.33;11.33;;;;;-147.47;100.00;64613.53;4886380;29;27856;-83
2023/12/08 09:59:16;;;;;;;;;16.67;14.67;;;;;-147.47;100.00;64613.53;4886982;29;29252;-83
2023/12/08 10:01:42;;;;;;;;;18.33;13.67;;;;;-147.47;100.00;64613.53;4904010;28;30764;-79
2023/12/08 10:04:07;;;;;;;;;16.67;14.00;;;;;-147.47;100.00;64613.53;4870864;29;28405;-75
2023/12/08 10:06:33;;;;;;;;;21.00;11.67;;;;;-147.47;100.00;64613.53;4899091;29;28010;-84
2023/12/08 10:09:00;;;;;;;;;12.00;10.33;;;;;-147.47;100.00;64613.53;4895089;29;27933;-78
2023/12/08 10:11:25;;;;;;;;;9.33;8.67;;;;;-147.47;100.00;64613.53;4891558;29;28482;-79
2023/12/08 10:13:52;;;;;;;;;16.67;13.00;;;;;-147.47;100.00;64613.53;4891813;29;28463;-79
2023/12/08 10:16:17;;;;;;;;;13.00;10.33;;;;;-147.47;100.00;64613.53;4886230;29;28545;-79
2023/12/08 10:18:43;;;;;;;;;13.33;12.67;;;;;-147.47;100.00;64613.53;4883954;29;28492;-77
2023/12/08 10:21:14;;;;;;;;;16.33;11.00;;;;;-147.47;100.00;64613.53;4877809;29;29360;-84
2023/12/08 10:23:41;;;;;;;;;13.67;9.00;;;;;-147.47;100.00;64613.53;4891502;29;28931;-83
2023/12/08 10:26:06;;;;;;;;;10.67;7.33;;;;;-147.47;100.00;64613.53;4881721;29;28480;-83
2023/12/08 10:28:35;;;;;;;;;9.67;6.00;;;;;-147.47;100.00;64613.53;4879459;29;28538;-83
2023/12/08 10:31:00;;;;;;;;;10.67;7.33;;;;;-147.47;100.00;64613.53;4872060;29;28526;-83
2023/12/08 10:33:26;;;;;;;;;12.67;8.00;;;;;-147.47;100.00;64613.53;4883503;29;28652;-83
2023/12/08 10:35:51;;;;;;;;;12.33;10.67;;;;;-147.47;100.00;64613.53;4865613;29;28238;-80
2023/12/08 10:38:18;;;;;;;;;13.33;11.00;;;;;-147.47;100.00;64613.53;4866403;29;29094;-82
2023/12/08 10:40:50;;;;;;;;;11.00;10.67;;;;;-147.47;100.00;64613.53;4888513;29;28514;-82
2023/12/08 10:43:28;;;;;;;;;9.00;7.67;;;;;-147.47;100.00;64613.53;4896551;29;28523;-81
2023/12/08 10:45:53;;;;;;;;;9.00;8.00;;;;;-147.47;100.00;64613.53;4895611;29;27918;-82
2023/12/08 10:48:23;;;;;;;;;13.00;8.33;;;;;-147.47;100.00;64613.53;4894989;29;30023;-82
2023/12/08 10:50:52;;;;;;;;;9.67;7.33;;;;;-147.47;100.00;64613.53;4888770;29;28585;-83
2023/12/08 10:53:19;;;;;;;;;15.00;12.67;;;;;-147.47;100.00;64613.53;4891970;29;28977;-77
2023/12/08 10:56:04;;;;;;;;;10.00;8.67;;;;;-147.47;100.00;64613.53;4891561;29;28461;-78